createdAt,value
2023-01-25T00:00:03.899Z,42.37
2023-01-25T00:02:30.399Z,40.03
2023-01-25T00:04:56.962Z,37.50
2023-01-25T00:07:23.437Z,37.67
2023-01-25T00:09:49.879Z,34.90
2023-01-25T00:12:16.407Z,37.30
2023-01-25T00:14:42.889Z,36.77
2023-01-25T00:17:09.453Z,36.17
2023-01-25T00:19:35.917Z,35.10
2023-01-25T00:22:02.615Z,36.13
2023-01-25T00:24:29.075Z,38.10
2023-01-25T00:26:55.560Z,39.13
2023-01-25T00:29:22.003Z,40.50
2023-01-25T00:31:57.820Z,36.87
2023-01-25T00:34:24.379Z,38.60
2023-01-25T00:36:57.354Z,38.53
2023-01-25T00:39:25.421Z,42.50
2023-01-25T00:41:51.963Z,38.70
2023-01-25T00:44:18.455Z,40.07
2023-01-25T00:46:44.953Z,34.67
2023-01-25T00:49:23.222Z,35.20
2023-01-25T00:51:50.697Z,35.57
2023-01-25T00:54:17.745Z,36.00
2023-01-25T00:56:44.333Z,35.30
2023-01-25T00:59:11.581Z,35.27
2023-01-25T01:01:38.384Z,33.53
2023-01-25T01:04:06.528Z,32.87
2023-01-25T01:06:38.618Z,34.37
2023-01-25T01:09:06.368Z,32.83
2023-01-25T01:11:32.953Z,33.00
2023-01-25T01:13:59.836Z,31.90
2023-01-25T01:16:27.168Z,36.37
2023-01-25T01:18:53.945Z,34.00
2023-01-25T01:21:20.831Z,32.13
2023-01-25T01:23:48.239Z,31.10
2023-01-25T01:26:16.549Z,31.77
2023-01-25T01:28:43.087Z,31.00
2023-01-25T01:31:13.498Z,28.77
2023-01-25T01:33:40.419Z,29.10
2023-01-25T01:36:15.293Z,28.37
2023-01-25T01:38:42.640Z,27.53
2023-01-25T01:41:09.991Z,29.80
2023-01-25T01:43:36.907Z,28.50
2023-01-25T01:46:14.316Z,28.30
2023-01-25T01:48:56.153Z,27.20
2023-01-25T01:51:44.429Z,25.67
2023-01-25T01:54:29.387Z,25.90
2023-01-25T01:57:00.917Z,27.23
2023-01-25T02:00:06.730Z,27.40
2023-01-25T02:02:33.327Z,28.47
2023-01-25T02:05:01.402Z,25.07
2023-01-25T02:07:34.821Z,28.77
2023-01-25T02:10:06.566Z,28.87
2023-01-25T02:12:33.103Z,27.80
2023-01-25T02:14:59.585Z,28.27
2023-01-25T02:17:31.521Z,29.27
2023-01-25T02:20:00.856Z,27.87
2023-01-25T02:22:33.320Z,26.77
2023-01-25T02:25:20.125Z,24.53
2023-01-25T02:28:06.667Z,26.13
2023-01-25T02:30:34.032Z,27.43
2023-01-25T02:33:00.939Z,29.37
2023-01-25T02:35:43.770Z,26.10
2023-01-25T02:38:12.655Z,27.43
2023-01-25T02:41:00.805Z,31.53
2023-01-25T02:43:32.174Z,31.80
2023-01-25T02:46:04.441Z,28.27
2023-01-25T02:48:30.901Z,30.53
2023-01-25T02:50:57.388Z,27.50
2023-01-25T02:53:23.870Z,29.13
2023-01-25T02:55:50.318Z,26.93
2023-01-25T02:58:16.754Z,30.83
2023-01-25T03:00:43.246Z,27.97
2023-01-25T03:03:09.704Z,31.80
2023-01-25T03:05:36.219Z,27.17
2023-01-25T03:08:02.659Z,27.60
2023-01-25T03:10:29.136Z,28.67
2023-01-25T03:12:55.582Z,26.50
2023-01-25T03:15:22.161Z,30.87
2023-01-25T03:17:48.598Z,27.50
2023-01-25T03:20:15.160Z,28.40
2023-01-25T03:22:41.600Z,30.87
2023-01-25T03:25:08.825Z,28.27
2023-01-25T03:27:35.490Z,28.60
2023-01-25T03:30:02.039Z,27.93
2023-01-25T03:32:28.517Z,28.77
2023-01-25T03:34:55.075Z,31.33
2023-01-25T03:37:21.647Z,27.00
2023-01-25T03:39:48.100Z,30.77
2023-01-25T03:42:15.324Z,31.47
2023-01-25T03:44:41.791Z,30.60
2023-01-25T03:47:08.334Z,30.43
2023-01-25T03:49:34.829Z,27.73
2023-01-25T03:52:01.346Z,29.33
2023-01-25T03:54:27.795Z,30.63
2023-01-25T03:56:54.299Z,28.93
2023-01-25T03:59:20.761Z,30.93
2023-01-25T04:01:47.241Z,28.90
2023-01-25T04:04:13.741Z,28.57
2023-01-25T04:06:40.427Z,29.37
2023-01-25T04:09:07.016Z,30.23
2023-01-25T04:11:33.734Z,31.10
2023-01-25T04:14:00.326Z,31.80
2023-01-25T04:16:28.070Z,29.07
2023-01-25T04:18:54.545Z,32.13
2023-01-25T04:21:21.014Z,32.50
2023-01-25T04:23:47.534Z,32.00
2023-01-25T04:26:14.579Z,32.83
2023-01-25T04:28:41.098Z,30.93
2023-01-25T04:31:07.950Z,34.20
2023-01-25T04:33:34.550Z,33.80
2023-01-25T04:36:01.162Z,33.03
2023-01-25T04:38:27.638Z,37.63
2023-01-25T04:40:54.199Z,39.93
2023-01-25T04:43:21.578Z,38.20
2023-01-25T04:45:48.249Z,41.47
2023-01-25T04:48:15.229Z,39.93
2023-01-25T04:50:42.730Z,40.97
2023-01-25T04:53:10.565Z,39.00
2023-01-25T04:55:37.078Z,42.33
2023-01-25T04:58:04.321Z,39.37
2023-01-25T05:00:32.409Z,41.40
2023-01-25T05:02:59.008Z,42.37
2023-01-25T05:05:25.543Z,45.60
2023-01-25T05:07:52.004Z,42.57
2023-01-25T05:10:18.667Z,40.83
2023-01-25T05:12:45.175Z,43.07
2023-01-25T05:15:12.034Z,42.40
2023-01-25T05:17:38.704Z,39.83
2023-01-25T05:20:05.454Z,39.27
2023-01-25T05:22:32.122Z,41.00
2023-01-25T05:24:59.289Z,40.17
2023-01-25T05:27:25.928Z,39.10
2023-01-25T05:29:52.370Z,38.87
2023-01-25T05:32:20.603Z,34.77
2023-01-25T05:34:47.677Z,36.13
2023-01-25T05:37:17.269Z,35.80
2023-01-25T05:39:43.734Z,33.47
2023-01-25T05:42:17.899Z,31.63
2023-01-25T05:44:47.065Z,28.97
2023-01-25T05:47:15.792Z,32.40
2023-01-25T05:49:42.306Z,32.27
2023-01-25T05:52:13.838Z,31.17
2023-01-25T05:54:40.286Z,33.53
2023-01-25T05:57:06.754Z,35.77
2023-01-25T05:59:33.202Z,36.47
2023-01-25T06:01:59.669Z,31.00
2023-01-25T06:04:26.182Z,29.40
2023-01-25T06:06:52.677Z,29.10
2023-01-25T06:09:19.134Z,32.03
2023-01-25T06:11:46.031Z,31.73
2023-01-25T06:14:12.760Z,32.57
2023-01-25T06:16:39.360Z,30.13
2023-01-25T06:19:07.096Z,31.87
2023-01-25T06:21:36.916Z,29.67
2023-01-25T06:24:04.716Z,33.63
2023-01-25T06:26:31.272Z,34.73
2023-01-25T06:28:57.775Z,34.23
2023-01-25T06:31:24.346Z,33.33
2023-01-25T06:33:52.176Z,30.23
2023-01-25T06:36:20.419Z,34.53
2023-01-25T06:38:50.975Z,29.10
2023-01-25T06:41:18.428Z,35.37
2023-01-25T06:43:45.248Z,37.27
2023-01-25T06:46:12.769Z,40.13
2023-01-25T06:48:40.143Z,41.73
2023-01-25T06:51:08.385Z,34.77
2023-01-25T06:53:37.395Z,46.13
2023-01-25T06:56:11.983Z,40.00
2023-01-25T06:58:39.104Z,34.93
2023-01-25T07:01:14.209Z,40.00
2023-01-25T07:03:41.363Z,39.87
2023-01-25T07:06:10.708Z,43.27
2023-01-25T07:08:37.692Z,44.83
2023-01-25T07:11:05.796Z,45.27
2023-01-25T07:13:33.531Z,44.17
2023-01-25T07:16:02.594Z,48.03
2023-01-25T07:18:30.211Z,42.93
2023-01-25T07:21:22.154Z,46.63
2023-01-25T07:23:49.620Z,42.23
2023-01-25T07:26:26.090Z,46.70
2023-01-25T07:28:53.627Z,47.50
2023-01-25T07:31:20.918Z,46.70
2023-01-25T07:33:49.444Z,46.77
2023-01-25T07:36:16.079Z,41.43
2023-01-25T07:38:42.840Z,46.63
2023-01-25T07:41:09.351Z,43.03
2023-01-25T07:43:35.807Z,41.00
2023-01-25T07:46:06.600Z,38.60
2023-01-25T07:48:33.530Z,35.13
2023-01-25T07:51:22.451Z,34.83
2023-01-25T07:53:52.147Z,40.93
2023-01-25T07:56:19.491Z,37.17
2023-01-25T07:58:46.659Z,34.40
2023-01-25T08:01:17.562Z,40.30
2023-01-25T08:03:44.655Z,44.23
2023-01-25T08:06:11.455Z,40.87
2023-01-25T08:08:41.061Z,37.17
2023-01-25T08:11:16.556Z,37.83
2023-01-25T08:13:46.399Z,42.90
2023-01-25T08:16:13.844Z,39.63
2023-01-25T08:18:40.584Z,40.20
2023-01-25T08:21:07.295Z,40.50
2023-01-25T08:23:33.801Z,42.63
2023-01-25T08:26:08.503Z,39.03
2023-01-25T08:28:35.834Z,39.33
2023-01-25T08:31:14.226Z,43.40
2023-01-25T08:33:41.164Z,42.10
2023-01-25T08:36:09.508Z,45.53
2023-01-25T08:38:36.363Z,41.77
2023-01-25T08:41:10.924Z,35.63
2023-01-25T08:43:38.201Z,42.47
2023-01-25T08:46:05.161Z,40.43
2023-01-25T08:48:32.083Z,39.70
2023-01-25T08:50:59.268Z,39.53
2023-01-25T08:53:28.613Z,32.97
2023-01-25T08:55:55.095Z,33.97
2023-01-25T08:58:22.639Z,32.97
2023-01-25T09:00:49.558Z,31.77
2023-01-25T09:03:18.185Z,32.23
2023-01-25T09:05:45.029Z,32.00
2023-01-25T09:08:11.562Z,31.90
2023-01-25T09:10:38.086Z,32.37
2023-01-25T09:13:06.348Z,29.50
2023-01-25T09:15:34.131Z,31.23
2023-01-25T09:18:00.565Z,31.33
2023-01-25T09:20:27.217Z,29.70
2023-01-25T09:22:55.326Z,32.13
2023-01-25T09:25:21.829Z,28.70
2023-01-25T09:27:51.818Z,31.23
2023-01-25T09:30:20.112Z,29.93
2023-01-25T09:32:49.626Z,26.00
2023-01-25T09:35:16.509Z,27.17
2023-01-25T09:37:42.964Z,27.30
2023-01-25T09:40:19.616Z,28.07
2023-01-25T09:43:06.228Z,26.47
2023-01-25T09:45:34.721Z,22.63
2023-01-25T09:48:26.201Z,24.43
2023-01-25T09:51:21.099Z,25.37
2023-01-25T09:53:50.082Z,25.70
2023-01-25T09:56:27.915Z,24.43
2023-01-25T09:58:58.888Z,24.20
2023-01-25T10:01:38.254Z,23.07
2023-01-25T10:04:31.396Z,26.13
2023-01-25T10:07:04.703Z,25.67
2023-01-25T10:09:34.312Z,23.00
2023-01-25T10:12:09.525Z,24.87
2023-01-25T10:14:36.033Z,24.23
2023-01-25T10:17:34.878Z,22.20
2023-01-25T10:20:24.222Z,24.50
2023-01-25T10:23:29.495Z,23.00
2023-01-25T10:26:01.072Z,25.63
2023-01-25T10:28:39.299Z,25.30
2023-01-25T10:31:29.737Z,26.00
2023-01-25T10:33:56.313Z,23.80
2023-01-25T10:36:28.955Z,24.63
2023-01-25T10:38:59.436Z,26.30
2023-01-25T10:41:36.981Z,26.60
2023-01-25T10:44:21.780Z,26.50
2023-01-25T10:47:15.443Z,27.40
2023-01-25T10:49:56.087Z,27.00
2023-01-25T10:52:25.056Z,27.07
2023-01-25T10:55:17.013Z,28.83
2023-01-25T10:57:51.336Z,27.53
2023-01-25T11:00:29.983Z,27.70
2023-01-25T11:02:57.191Z,27.97
2023-01-25T11:05:35.142Z,27.63
2023-01-25T11:08:30.743Z,28.80
2023-01-25T11:10:57.705Z,29.30
2023-01-25T11:13:33.253Z,29.53
2023-01-25T11:15:59.722Z,29.33
2023-01-25T11:18:29.515Z,29.63
2023-01-25T11:21:18.367Z,31.03
2023-01-25T11:24:00.431Z,31.03
2023-01-25T11:26:27.586Z,30.03
2023-01-25T11:29:10.824Z,36.37
2023-01-25T11:31:37.421Z,35.53
2023-01-25T11:34:09.686Z,35.27
2023-01-25T11:36:45.656Z,33.13
2023-01-25T11:39:44.032Z,34.07
2023-01-25T11:42:34.488Z,31.90
2023-01-25T11:45:10.281Z,34.63
2023-01-25T11:47:54.981Z,36.43
2023-01-25T11:50:28.458Z,43.17
2023-01-25T11:53:20.817Z,40.50
2023-01-25T11:55:55.922Z,41.33
2023-01-25T11:58:25.471Z,40.37
2023-01-25T12:00:59.707Z,42.13
2023-01-25T12:03:51.140Z,42.13
2023-01-25T12:06:26.767Z,40.23
2023-01-25T12:09:27.204Z,43.57
2023-01-25T12:12:16.958Z,43.40
2023-01-25T12:15:01.655Z,43.00
2023-01-25T12:17:57.683Z,44.57
2023-01-25T12:21:08.208Z,44.63
2023-01-25T12:23:43.438Z,43.10
2023-01-25T12:26:21.016Z,48.13
2023-01-25T12:29:10.493Z,48.70
2023-01-25T12:31:58.939Z,48.80
2023-01-25T12:34:36.693Z,47.90
2023-01-25T12:37:28.751Z,49.37
2023-01-25T12:40:06.626Z,49.47
2023-01-25T12:42:38.112Z,49.00
2023-01-25T12:45:14.545Z,49.17
2023-01-25T12:47:46.867Z,52.97
2023-01-25T12:50:23.877Z,51.87
2023-01-25T12:52:54.909Z,50.80
2023-01-25T12:55:21.452Z,49.30
2023-01-25T12:58:32.842Z,50.27
2023-01-25T13:01:41.156Z,46.80
2023-01-25T13:04:25.999Z,48.10
2023-01-25T13:06:55.075Z,45.73
2023-01-25T13:10:06.010Z,45.70
2023-01-25T13:12:54.078Z,45.80
2023-01-25T13:15:43.186Z,47.87
2023-01-25T13:18:24.959Z,48.10
2023-01-25T13:20:53.685Z,47.43
2023-01-25T13:23:45.842Z,46.30
2023-01-25T13:26:21.429Z,47.80
2023-01-25T13:28:49.334Z,48.67
2023-01-25T13:31:51.075Z,48.50
2023-01-25T13:34:40.188Z,46.80
2023-01-25T13:37:42.522Z,46.23
2023-01-25T13:40:31.471Z,45.70
2023-01-25T13:43:25.931Z,45.73
2023-01-25T13:45:52.980Z,47.93
2023-01-25T13:48:24.489Z,46.13
2023-01-25T13:50:53.658Z,50.70
2023-01-25T13:53:22.920Z,48.80
2023-01-25T13:55:55.180Z,53.97
2023-01-25T13:58:38.778Z,48.27
2023-01-25T14:01:17.824Z,49.30
2023-01-25T14:03:50.239Z,50.63
2023-01-25T14:06:29.194Z,50.57
2023-01-25T14:08:58.467Z,49.20
2023-01-25T14:11:27.203Z,50.73
2023-01-25T14:13:57.494Z,51.07
2023-01-25T14:16:24.110Z,48.60
2023-01-25T14:18:50.700Z,48.63
2023-01-25T14:21:19.301Z,48.77
2023-01-25T14:23:46.637Z,61.07
2023-01-25T14:26:19.155Z,52.90
2023-01-25T14:28:59.521Z,50.67
2023-01-25T14:31:33.008Z,50.63
2023-01-25T14:33:59.669Z,49.73
2023-01-25T14:36:29.807Z,51.17
2023-01-25T14:38:56.387Z,50.47
2023-01-25T14:41:30.083Z,52.63
2023-01-25T14:44:10.669Z,48.30
2023-01-25T14:46:38.475Z,49.67
2023-01-25T14:49:14.304Z,50.23
2023-01-25T14:51:49.391Z,50.63
2023-01-25T14:54:19.163Z,44.97
2023-01-25T14:56:50.959Z,48.63
2023-01-25T14:59:32.437Z,49.03
2023-01-25T15:02:20.187Z,50.17
2023-01-25T15:04:55.979Z,50.40
2023-01-25T15:07:42.276Z,49.93
2023-01-25T15:10:29.530Z,51.77
2023-01-25T15:13:21.629Z,52.70
2023-01-25T15:15:56.545Z,52.00
2023-01-25T15:18:45.328Z,54.90
2023-01-25T15:21:19.735Z,49.93
2023-01-25T15:23:47.861Z,54.33
2023-01-25T15:26:21.401Z,50.40
2023-01-25T15:28:49.342Z,50.93
2023-01-25T15:31:22.557Z,51.73
2023-01-25T15:33:49.179Z,51.63
2023-01-25T15:36:17.016Z,51.33
2023-01-25T15:38:43.513Z,49.30
2023-01-25T15:41:12.334Z,51.57
2023-01-25T15:43:38.851Z,50.07
2023-01-25T15:46:06.868Z,51.30
2023-01-25T15:48:36.946Z,50.10
2023-01-25T15:51:04.018Z,49.23
2023-01-25T15:53:30.478Z,51.27
2023-01-25T15:56:02.133Z,53.83
2023-01-25T15:58:36.741Z,54.10
2023-01-25T16:01:03.560Z,50.63
2023-01-25T16:03:30.828Z,54.20
2023-01-25T16:06:00.066Z,50.57
2023-01-25T16:08:26.650Z,51.57
2023-01-25T16:10:53.165Z,52.07
2023-01-25T16:13:19.695Z,54.87
2023-01-25T16:15:49.002Z,55.20
2023-01-25T16:18:15.490Z,53.63
2023-01-25T16:20:43.274Z,51.90
2023-01-25T16:23:13.099Z,51.80
2023-01-25T16:25:40.548Z,54.97
2023-01-25T16:28:13.787Z,53.67
2023-01-25T16:30:41.151Z,51.87
2023-01-25T16:33:07.647Z,54.47
2023-01-25T16:35:34.098Z,50.67
2023-01-25T16:38:00.557Z,53.37
2023-01-25T16:40:30.180Z,54.03
2023-01-25T16:42:57.071Z,51.10
2023-01-25T16:45:26.435Z,50.90
2023-01-25T16:47:53.500Z,55.50
2023-01-25T16:50:21.847Z,57.03
2023-01-25T16:52:51.735Z,48.13
2023-01-25T16:55:19.301Z,53.03
2023-01-25T16:57:49.836Z,53.83
2023-01-25T17:00:16.674Z,53.00
2023-01-25T17:02:53.434Z,56.27
2023-01-25T17:05:25.566Z,57.13
2023-01-25T17:07:52.073Z,59.77
2023-01-25T17:10:18.614Z,54.50
2023-01-25T17:12:45.899Z,56.37
2023-01-25T17:15:12.360Z,57.60
2023-01-25T17:17:38.843Z,50.53
2023-01-25T17:20:05.993Z,53.63
2023-01-25T17:22:37.391Z,52.97
2023-01-25T17:25:05.395Z,49.27
2023-01-25T17:27:32.311Z,48.47
2023-01-25T17:29:58.923Z,48.83
2023-01-25T17:32:25.443Z,51.77
2023-01-25T17:34:52.013Z,51.10
2023-01-25T17:37:18.462Z,47.53
2023-01-25T17:39:45.073Z,47.07
2023-01-25T17:42:13.198Z,47.17
2023-01-25T17:44:39.937Z,49.53
2023-01-25T17:47:06.604Z,49.50
2023-01-25T17:49:33.146Z,45.50
2023-01-25T17:51:59.655Z,46.87
2023-01-25T17:54:26.189Z,46.07
2023-01-25T17:56:54.096Z,46.10
2023-01-25T17:59:21.643Z,49.93
2023-01-25T18:01:48.293Z,49.70
2023-01-25T18:04:17.614Z,50.50
2023-01-25T18:06:44.359Z,49.83
2023-01-25T18:09:10.863Z,49.67
2023-01-25T18:11:39.928Z,49.17
2023-01-25T18:14:09.531Z,48.50
2023-01-25T18:16:37.946Z,47.77
2023-01-25T18:19:04.987Z,52.17
2023-01-25T18:21:33.111Z,49.37
2023-01-25T18:24:02.288Z,47.93
2023-01-25T18:26:31.821Z,44.70
2023-01-25T18:29:00.127Z,48.73
2023-01-25T18:31:26.909Z,49.10
2023-01-25T18:33:53.489Z,50.47
2023-01-25T18:36:20.499Z,51.90
2023-01-25T18:38:47.253Z,53.27
2023-01-25T18:41:17.865Z,52.23
2023-01-25T18:43:44.395Z,52.13
2023-01-25T18:46:11.541Z,55.87
2023-01-25T18:48:38.170Z,49.60
2023-01-25T18:51:13.025Z,51.13
2023-01-25T18:53:41.510Z,53.43
2023-01-25T18:56:11.392Z,51.20
2023-01-25T18:58:38.775Z,49.33
2023-01-25T19:01:16.414Z,49.70
2023-01-25T19:03:43.772Z,54.77
2023-01-25T19:06:12.456Z,50.70
2023-01-25T19:08:44.055Z,56.33
2023-01-25T19:11:21.057Z,50.43
2023-01-25T19:13:48.455Z,56.03
2023-01-25T19:16:20.378Z,55.33
2023-01-25T19:18:52.921Z,55.30
2023-01-25T19:21:28.644Z,50.73
2023-01-25T19:23:56.091Z,50.37
2023-01-25T19:26:39.152Z,53.00
2023-01-25T19:29:07.522Z,49.17
2023-01-25T19:31:48.711Z,50.30
2023-01-25T19:34:15.297Z,49.73
2023-01-25T19:36:49.401Z,52.33
2023-01-25T19:39:18.199Z,50.47
2023-01-25T19:41:45.147Z,49.37
2023-01-25T19:44:13.886Z,49.57
2023-01-25T19:46:42.933Z,54.67
2023-01-25T19:49:12.163Z,51.03
2023-01-25T19:51:44.595Z,53.80
2023-01-25T19:54:18.037Z,49.87
2023-01-25T19:56:49.586Z,43.53
2023-01-25T19:59:21.747Z,47.93
2023-01-25T20:01:49.231Z,58.23
2023-01-25T20:04:19.717Z,58.03
2023-01-25T20:06:47.426Z,53.83
2023-01-25T20:09:16.113Z,57.60
2023-01-25T20:11:43.871Z,48.67
2023-01-25T20:14:12.417Z,50.43
2023-01-25T20:16:39.352Z,44.13
2023-01-25T20:19:06.315Z,46.87
2023-01-25T20:21:33.597Z,46.33
2023-01-25T20:24:04.803Z,46.93
2023-01-25T20:26:34.701Z,48.10
2023-01-25T20:29:01.331Z,45.70
2023-01-25T20:31:38.164Z,49.10
2023-01-25T20:34:11.820Z,47.50
2023-01-25T20:36:38.976Z,44.30
2023-01-25T20:39:06.512Z,44.37
2023-01-25T20:41:33.177Z,47.17
2023-01-25T20:44:01.999Z,49.40
2023-01-25T20:46:29.807Z,48.03
2023-01-25T20:48:56.357Z,44.10
2023-01-25T20:51:24.022Z,48.73
2023-01-25T20:53:50.869Z,49.90
2023-01-25T20:56:18.648Z,47.97
2023-01-25T20:58:50.352Z,45.53
2023-01-25T21:01:28.294Z,48.57
2023-01-25T21:03:56.731Z,50.43
2023-01-25T21:06:27.470Z,49.47
2023-01-25T21:08:54.461Z,50.50
2023-01-25T21:11:23.070Z,49.33
2023-01-25T21:13:49.573Z,52.53
2023-01-25T21:16:23.174Z,52.67
2023-01-25T21:18:52.157Z,50.93
2023-01-25T21:21:32.344Z,54.43
2023-01-25T21:24:00.112Z,54.93
2023-01-25T21:26:29.277Z,53.33
2023-01-25T21:28:55.982Z,54.53
2023-01-25T21:31:24.826Z,54.10
2023-01-25T21:33:52.095Z,52.23
2023-01-25T21:36:19.213Z,61.97
2023-01-25T21:38:48.097Z,57.23
2023-01-25T21:41:21.213Z,56.73
2023-01-25T21:44:07.533Z,65.67
2023-01-25T21:46:34.929Z,67.17
2023-01-25T21:49:25.035Z,86.53
2023-01-25T21:51:53.836Z,77.53
2023-01-25T21:54:20.262Z,85.97
2023-01-25T21:56:48.440Z,117.90
2023-01-25T21:59:15.137Z,98.77
2023-01-25T22:01:45.084Z,107.83
2023-01-25T22:04:12.814Z,123.37
2023-01-25T22:06:39.960Z,78.57
2023-01-25T22:09:07.365Z,76.70
2023-01-25T22:11:34.138Z,71.47
2023-01-25T22:14:01.285Z,73.73
2023-01-25T22:16:31.465Z,78.93
2023-01-25T22:19:02.351Z,71.93
2023-01-25T22:21:54.654Z,73.50
2023-01-25T22:24:30.276Z,73.00
2023-01-25T22:27:15.962Z,73.20
2023-01-25T22:29:42.401Z,79.30
2023-01-25T22:32:08.919Z,76.63
2023-01-25T22:34:35.789Z,76.20
2023-01-25T22:37:02.238Z,77.30
2023-01-25T22:39:28.717Z,79.87
2023-01-25T22:41:56.510Z,86.53
2023-01-25T22:44:22.940Z,88.80
2023-01-25T22:46:50.655Z,94.50
2023-01-25T22:49:17.184Z,91.33
2023-01-25T22:51:43.668Z,93.07
2023-01-25T22:54:10.112Z,95.53
2023-01-25T22:56:36.739Z,99.93
2023-01-25T22:59:03.573Z,94.40
2023-01-25T23:01:34.512Z,95.20
2023-01-25T23:04:01.944Z,96.83
2023-01-25T23:06:30.406Z,94.97
2023-01-25T23:08:59.759Z,91.77
2023-01-25T23:11:32.252Z,101.00
2023-01-25T23:14:18.352Z,108.07
2023-01-25T23:16:44.923Z,104.67
2023-01-25T23:19:11.589Z,98.93
2023-01-25T23:21:38.198Z,105.50
2023-01-25T23:24:05.164Z,105.50
2023-01-25T23:26:40.948Z,102.20
2023-01-25T23:29:10.537Z,109.33
2023-01-25T23:31:37.264Z,108.17
2023-01-25T23:34:06.003Z,114.10
2023-01-25T23:36:34.724Z,111.90
2023-01-25T23:39:01.338Z,121.23
2023-01-25T23:41:29.079Z,104.63
2023-01-25T23:43:56.392Z,113.13
2023-01-25T23:46:23.517Z,100.43
2023-01-25T23:48:50.128Z,103.33
2023-01-25T23:51:17.519Z,96.40
2023-01-25T23:53:44.214Z,97.30
2023-01-25T23:56:13.966Z,101.43
2023-01-25T23:58:40.485Z,96.53
